createdAt,value
2022-12-16T00:01:50.798Z,101001.88
2022-12-16T00:04:18.379Z,101008.75
2022-12-16T00:06:44.876Z,100989.00
2022-12-16T00:09:11.361Z,101013.94
2022-12-16T00:11:37.950Z,101007.16
2022-12-16T00:14:04.508Z,101019.50
2022-12-16T00:16:31.231Z,101024.75
2022-12-16T00:18:57.716Z,101020.44
2022-12-16T00:21:28.781Z,101008.28
2022-12-16T00:23:58.319Z,101029.56
2022-12-16T00:26:25.334Z,101030.00
2022-12-16T00:28:51.803Z,101034.66
2022-12-16T00:31:18.381Z,101021.69
2022-12-16T00:33:45.593Z,101021.38
2022-12-16T00:36:12.150Z,100994.78
2022-12-16T00:38:38.603Z,101032.47
2022-12-16T00:41:05.414Z,100970.34
2022-12-16T00:43:32.305Z,100981.31
2022-12-16T00:45:59.014Z,100986.97
2022-12-16T00:48:25.691Z,100993.78
2022-12-16T00:50:55.284Z,101022.16
2022-12-16T00:53:24.144Z,101040.25
2022-12-16T00:55:50.877Z,101044.09
2022-12-16T00:58:18.862Z,101035.34
2022-12-16T01:00:45.446Z,101025.06
2022-12-16T01:03:16.717Z,101041.63
2022-12-16T01:05:46.102Z,101051.38
2022-12-16T01:08:12.883Z,101054.44
2022-12-16T01:10:39.396Z,101054.28
2022-12-16T01:13:05.882Z,101053.34
2022-12-16T01:15:32.578Z,101046.25
2022-12-16T01:17:59.382Z,101053.22
2022-12-16T01:20:25.861Z,101036.03
2022-12-16T01:22:52.329Z,101023.16
2022-12-16T01:25:18.836Z,101033.38
2022-12-16T01:27:45.399Z,101072.50
2022-12-16T01:30:12.446Z,101076.19
2022-12-16T01:32:39.251Z,101011.25
2022-12-16T01:35:14.198Z,101088.81
2022-12-16T01:37:50.062Z,101047.03
2022-12-16T01:40:19.418Z,101082.19
2022-12-16T01:42:46.155Z,101057.41
2022-12-16T01:45:24.840Z,101087.28
2022-12-16T01:47:56.165Z,101012.22
2022-12-16T01:53:04.921Z,101070.00
2022-12-16T01:55:36.344Z,101086.47
2022-12-16T01:58:08.996Z,101084.72
2022-12-16T02:00:37.438Z,101090.88
2022-12-16T02:03:05.238Z,101070.00
2022-12-16T02:05:35.471Z,101062.28
2022-12-16T02:08:10.708Z,101086.63
2022-12-16T02:10:42.976Z,101086.94
2022-12-16T02:13:21.856Z,101090.59
2022-12-16T02:16:19.868Z,101091.66
2022-12-16T02:18:58.545Z,101064.91
2022-12-16T02:22:04.269Z,101087.41
2022-12-16T02:25:18.208Z,101082.28
2022-12-16T02:28:09.415Z,101083.38
2022-12-16T02:30:48.079Z,101087.41
2022-12-16T02:33:14.763Z,101089.50
2022-12-16T02:36:00.435Z,101088.09
2022-12-16T02:38:35.909Z,101093.63
2022-12-16T02:41:06.085Z,101091.03
2022-12-16T02:44:05.695Z,101086.78
2022-12-16T02:46:34.185Z,101058.50
2022-12-16T02:49:26.845Z,101088.91
2022-12-16T02:51:54.461Z,101082.06
2022-12-16T02:54:20.947Z,101092.81
2022-12-16T02:57:18.909Z,101075.66
2022-12-16T02:59:54.972Z,101097.13
2022-12-16T03:02:46.287Z,101087.69
2022-12-16T03:05:42.695Z,101022.47
2022-12-16T03:08:19.177Z,101093.69
2022-12-16T03:10:52.659Z,100999.03
2022-12-16T03:13:21.514Z,101072.94
2022-12-16T03:15:52.413Z,101087.16
2022-12-16T03:18:20.379Z,101062.97
2022-12-16T03:20:55.721Z,101050.16
2022-12-16T03:23:29.557Z,101034.63
2022-12-16T03:26:03.261Z,101095.25
2022-12-16T03:28:50.846Z,101024.44
2022-12-16T03:31:27.614Z,101113.00
2022-12-16T03:34:04.114Z,101071.63
2022-12-16T03:36:35.045Z,101059.50
2022-12-16T03:39:05.674Z,101087.09
2022-12-16T03:41:33.743Z,101077.50
2022-12-16T03:44:00.624Z,101110.44
2022-12-16T03:46:27.586Z,101114.13
2022-12-16T03:48:54.109Z,101115.31
2022-12-16T03:51:20.846Z,101115.50
2022-12-16T03:53:47.461Z,101120.81
2022-12-16T03:56:14.157Z,101092.25
2022-12-16T03:58:40.927Z,101075.22
2022-12-16T04:01:09.546Z,101105.56
2022-12-16T04:03:37.579Z,101122.22
2022-12-16T04:06:04.735Z,101130.13
2022-12-16T04:08:31.282Z,101120.00
2022-12-16T04:11:16.530Z,101075.78
2022-12-16T04:14:01.536Z,101143.31
2022-12-16T04:16:48.860Z,101134.72
2022-12-16T04:19:44.467Z,101145.31
2022-12-16T04:22:42.829Z,101150.69
2022-12-16T04:25:16.006Z,101142.88
2022-12-16T04:27:47.039Z,101089.09
2022-12-16T04:30:19.060Z,101154.19
2022-12-16T04:33:10.262Z,101156.84
2022-12-16T04:35:55.763Z,101164.91
2022-12-16T04:38:41.300Z,101158.13
2022-12-16T04:41:26.708Z,101107.00
2022-12-16T04:44:11.574Z,101173.00
2022-12-16T04:46:56.673Z,101169.56
2022-12-16T04:49:41.558Z,101117.69
2022-12-16T04:52:27.023Z,101173.25
2022-12-16T04:55:12.247Z,101122.09
2022-12-16T04:57:57.676Z,101181.22
2022-12-16T05:00:43.288Z,101169.00
2022-12-16T05:03:28.214Z,101117.25
2022-12-16T05:06:13.430Z,101133.03
2022-12-16T05:08:58.246Z,101136.50
2022-12-16T05:11:43.050Z,101176.31
2022-12-16T05:14:27.899Z,101153.16
2022-12-16T05:17:13.066Z,101186.19
2022-12-16T05:19:57.909Z,101144.63
2022-12-16T05:22:42.845Z,101189.84
2022-12-16T05:25:29.249Z,101145.72
2022-12-16T05:28:14.596Z,101193.47
2022-12-16T05:30:59.613Z,101197.09
2022-12-16T05:33:44.709Z,101200.50
2022-12-16T05:36:30.336Z,101210.28
2022-12-16T05:39:15.192Z,101198.88
2022-12-16T05:42:00.513Z,101211.81
2022-12-16T05:44:45.870Z,101216.91
2022-12-16T05:47:31.353Z,101215.13
2022-12-16T05:50:16.558Z,101194.34
2022-12-16T05:53:08.559Z,101220.59
2022-12-16T05:55:53.359Z,101176.31
2022-12-16T05:58:38.717Z,101216.16
2022-12-16T06:01:24.679Z,101235.41
2022-12-16T06:04:15.593Z,101229.19
2022-12-16T06:07:02.667Z,101178.03
2022-12-16T06:09:50.655Z,101225.75
2022-12-16T06:12:40.044Z,101238.81
2022-12-16T06:15:25.742Z,101223.38
2022-12-16T06:18:10.763Z,101229.47
2022-12-16T06:20:55.660Z,101221.91
2022-12-16T06:23:40.520Z,101207.94
2022-12-16T06:26:26.335Z,101242.69
2022-12-16T06:29:11.182Z,101261.78
2022-12-16T06:31:56.154Z,101239.19
2022-12-16T06:34:41.513Z,101188.84
2022-12-16T06:37:26.529Z,101272.19
2022-12-16T06:40:11.465Z,101226.94
2022-12-16T06:43:00.361Z,101289.41
2022-12-16T06:45:46.207Z,101292.72
2022-12-16T06:48:31.790Z,101288.16
2022-12-16T06:51:17.035Z,101301.16
2022-12-16T06:54:03.655Z,101294.72
2022-12-16T06:56:48.591Z,101301.56
2022-12-16T06:59:33.574Z,101306.69
2022-12-16T07:02:18.882Z,101297.09
2022-12-16T07:05:03.778Z,101302.97
2022-12-16T07:07:56.421Z,101191.72
2022-12-16T07:10:41.490Z,101295.16
2022-12-16T07:13:26.617Z,101302.03
2022-12-16T07:16:11.778Z,101287.38
2022-12-16T07:18:57.428Z,101276.09
2022-12-16T07:21:42.299Z,101323.91
2022-12-16T07:24:28.267Z,101289.31
2022-12-16T07:27:13.531Z,101292.00
2022-12-16T07:29:58.611Z,101309.22
2022-12-16T07:32:44.240Z,101352.09
2022-12-16T07:35:46.454Z,101329.50
2022-12-16T07:38:31.841Z,101366.97
2022-12-16T07:41:16.708Z,101310.34
2022-12-16T07:44:01.592Z,101321.81
2022-12-16T07:46:46.559Z,101305.31
2022-12-16T07:49:45.141Z,101336.53
2022-12-16T07:52:29.918Z,101328.84
2022-12-16T07:55:14.796Z,101378.16
2022-12-16T07:58:00.642Z,101345.09
2022-12-16T08:00:45.624Z,101347.59
2022-12-16T08:03:31.046Z,101325.84
2022-12-16T08:06:16.502Z,101400.81
2022-12-16T08:09:01.807Z,101378.34
2022-12-16T08:11:46.967Z,101403.81
2022-12-16T08:14:32.034Z,101414.69
2022-12-16T08:17:16.879Z,101418.97
2022-12-16T08:20:02.238Z,101424.94
2022-12-16T08:22:47.386Z,101359.41
2022-12-16T08:25:32.267Z,101391.34
2022-12-16T08:28:17.414Z,101371.41
2022-12-16T08:31:02.472Z,101440.53
2022-12-16T08:33:47.433Z,101408.41
2022-12-16T08:36:32.659Z,101448.91
2022-12-16T08:39:17.537Z,101454.88
2022-12-16T08:42:02.494Z,101403.38
2022-12-16T08:44:47.785Z,101432.97
2022-12-16T08:47:32.825Z,101425.88
2022-12-16T08:50:17.836Z,101433.63
2022-12-16T08:53:03.146Z,101464.81
2022-12-16T08:55:49.326Z,101477.50
2022-12-16T08:58:34.234Z,101453.34
2022-12-16T09:01:19.212Z,101479.28
2022-12-16T09:04:04.508Z,101442.09
2022-12-16T09:06:49.387Z,101477.66
2022-12-16T09:09:34.287Z,101492.31
2022-12-16T09:12:19.144Z,101484.69
2022-12-16T09:15:04.000Z,101501.00
2022-12-16T09:17:48.915Z,101500.38
2022-12-16T09:20:34.264Z,101501.84
2022-12-16T09:23:23.638Z,101490.84
2022-12-16T09:26:08.712Z,101462.13
2022-12-16T09:28:53.925Z,101513.09
2022-12-16T09:31:39.816Z,101477.47
2022-12-16T09:34:24.755Z,101483.56
2022-12-16T09:37:10.083Z,101518.13
2022-12-16T09:39:55.039Z,101500.03
2022-12-16T09:43:07.217Z,101477.13
2022-12-16T09:46:07.403Z,101526.50
2022-12-16T09:49:24.515Z,101527.03
2022-12-16T09:52:16.506Z,101525.38
2022-12-16T09:55:05.240Z,101534.13
2022-12-16T09:57:54.116Z,101535.53
2022-12-16T10:00:43.377Z,101540.19
2022-12-16T10:03:52.929Z,101523.44
2022-12-16T10:06:51.434Z,101545.88
2022-12-16T10:10:02.844Z,101542.44
2022-12-16T10:13:29.673Z,101542.28
2022-12-16T10:16:26.119Z,101536.97
2022-12-16T10:19:21.257Z,101551.00
2022-12-16T10:22:11.175Z,101554.34
2022-12-16T10:25:14.188Z,101550.03
2022-12-16T10:28:04.707Z,101555.28
2022-12-16T10:30:52.675Z,101539.94
2022-12-16T10:33:40.307Z,101547.56
2022-12-16T10:36:32.922Z,101547.88
2022-12-16T10:39:25.688Z,101455.59
2022-12-16T10:42:12.737Z,101557.13
2022-12-16T10:45:14.296Z,101554.34
2022-12-16T10:47:59.477Z,101555.28
2022-12-16T10:50:44.514Z,101529.63
2022-12-16T10:53:41.579Z,101385.94
2022-12-16T10:56:45.650Z,101549.81
2022-12-16T10:59:30.717Z,101552.97
2022-12-16T11:02:20.495Z,101555.75
2022-12-16T11:05:08.067Z,101544.34
2022-12-16T11:07:56.331Z,101557.22
2022-12-16T11:11:04.288Z,101557.19
2022-12-16T11:13:55.976Z,101551.03
2022-12-16T11:16:46.691Z,101507.75
2022-12-16T11:19:44.667Z,101557.09
2022-12-16T11:22:39.108Z,101553.66
2022-12-16T11:25:37.928Z,101557.28
2022-12-16T11:28:35.323Z,101547.31
2022-12-16T11:31:34.646Z,101549.78
2022-12-16T11:34:21.554Z,101558.50
2022-12-16T11:37:11.082Z,101561.19
2022-12-16T11:39:56.961Z,101555.56
2022-12-16T11:42:47.181Z,101561.69
2022-12-16T11:45:35.468Z,101542.09
2022-12-16T11:49:01.377Z,101558.63
2022-12-16T11:51:50.570Z,101529.63
2022-12-16T11:54:42.315Z,101503.47
2022-12-16T11:57:41.933Z,101568.88
2022-12-16T12:00:33.760Z,101493.78
2022-12-16T12:03:32.453Z,101557.41
2022-12-16T12:06:30.958Z,101566.22
2022-12-16T12:09:27.110Z,101570.41
2022-12-16T12:12:31.011Z,101568.41
2022-12-16T12:15:33.442Z,101526.13
2022-12-16T12:18:24.759Z,101575.47
2022-12-16T12:21:29.890Z,101585.25
2022-12-16T12:24:31.422Z,101585.41
2022-12-16T12:27:38.906Z,101538.97
2022-12-16T12:30:41.828Z,101587.16
2022-12-16T12:33:48.907Z,101587.19
2022-12-16T12:36:45.992Z,101585.00
2022-12-16T12:39:38.542Z,101525.31
2022-12-16T12:42:49.187Z,101599.09
2022-12-16T12:46:06.195Z,101595.88
2022-12-16T12:49:00.488Z,101600.34
2022-12-16T12:52:18.237Z,101604.53
2022-12-16T12:55:23.549Z,101600.91
2022-12-16T12:58:10.910Z,101606.13
2022-12-16T13:01:04.085Z,101555.13
2022-12-16T13:04:00.788Z,101601.16
2022-12-16T13:06:46.714Z,101619.38
2022-12-16T13:10:27.416Z,101633.50
2022-12-16T13:13:36.196Z,101599.28
2022-12-16T13:16:23.992Z,101593.00
2022-12-16T13:19:47.580Z,101628.19
2022-12-16T13:22:53.888Z,101630.53
2022-12-16T13:26:03.535Z,101578.81
2022-12-16T13:28:52.089Z,101640.63
2022-12-16T13:31:38.230Z,101641.50
2022-12-16T13:34:42.443Z,101625.00
2022-12-16T13:37:44.548Z,101627.47
2022-12-16T13:40:40.197Z,101641.22
2022-12-16T13:43:55.959Z,101635.41
2022-12-16T13:47:18.525Z,101643.03
2022-12-16T13:50:03.601Z,101641.63
2022-12-16T13:53:03.959Z,101653.31
2022-12-16T13:55:54.087Z,101654.25
2022-12-16T13:58:50.445Z,101654.41
2022-12-16T14:01:41.396Z,101637.28
2022-12-16T14:04:29.307Z,101657.53
2022-12-16T14:07:24.441Z,101657.69
2022-12-16T14:10:09.930Z,101661.88
2022-12-16T14:13:16.794Z,101675.31
2022-12-16T14:16:33.226Z,101678.75
2022-12-16T14:19:40.201Z,101677.19
2022-12-16T14:22:40.715Z,101665.31
2022-12-16T14:25:33.999Z,101660.84
2022-12-16T14:28:24.357Z,101622.38
2022-12-16T14:31:22.841Z,101614.03
2022-12-16T14:34:13.275Z,101669.38
2022-12-16T14:36:59.079Z,101669.22
2022-12-16T14:39:48.938Z,101692.28
2022-12-16T14:42:52.862Z,101696.16
2022-12-16T14:45:38.014Z,101697.56
2022-12-16T14:48:50.089Z,101709.16
2022-12-16T14:51:41.026Z,101703.63
2022-12-16T14:54:54.180Z,101705.41
2022-12-16T14:57:48.478Z,101703.22
2022-12-16T15:00:43.019Z,101688.72
2022-12-16T15:03:50.458Z,101714.28
2022-12-16T15:06:45.417Z,101723.19
2022-12-16T15:09:40.294Z,101670.19
2022-12-16T15:12:28.814Z,101711.94
2022-12-16T15:15:15.349Z,101725.22
2022-12-16T15:18:07.514Z,101727.94
2022-12-16T15:20:56.680Z,101684.72
2022-12-16T15:23:48.547Z,101739.56
2022-12-16T15:26:43.238Z,101751.16
2022-12-16T15:29:47.614Z,101717.09
2022-12-16T15:32:54.167Z,101756.25
2022-12-16T15:36:04.847Z,101773.91
2022-12-16T15:38:52.180Z,101736.53
2022-12-16T15:41:49.903Z,101779.03
2022-12-16T15:44:40.791Z,101778.09
2022-12-16T15:47:39.403Z,101787.53
2022-12-16T15:50:25.446Z,101792.75
2022-12-16T15:53:11.715Z,101749.13
2022-12-16T15:56:04.566Z,101791.81
2022-12-16T15:58:50.261Z,101797.84
2022-12-16T16:01:37.707Z,101804.78
2022-12-16T16:04:23.018Z,101788.19
2022-12-16T16:07:10.607Z,101771.75
2022-12-16T16:09:58.721Z,101787.47
2022-12-16T16:12:44.004Z,101798.72
2022-12-16T16:15:32.624Z,101806.66
2022-12-16T16:18:21.445Z,101754.44
2022-12-16T16:21:08.760Z,101744.22
2022-12-16T16:23:54.164Z,101773.91
2022-12-16T16:26:41.812Z,101747.16
2022-12-16T16:29:29.321Z,101822.09
2022-12-16T16:32:14.449Z,101770.03
2022-12-16T16:34:59.684Z,101735.06
2022-12-16T16:37:44.824Z,101829.25
2022-12-16T16:40:36.149Z,101846.75
2022-12-16T16:43:21.467Z,101842.38
2022-12-16T16:46:13.113Z,101780.44
2022-12-16T16:48:58.836Z,101819.69
2022-12-16T16:51:44.077Z,101787.47
2022-12-16T16:54:29.050Z,101764.78
2022-12-16T16:57:14.183Z,101850.28
2022-12-16T16:59:59.707Z,101809.28
2022-12-16T17:02:44.745Z,101819.03
2022-12-16T17:05:30.715Z,101829.53
2022-12-16T17:08:16.667Z,101792.09
2022-12-16T17:11:02.402Z,101835.88
2022-12-16T17:14:01.041Z,101851.66
2022-12-16T17:16:45.835Z,101856.91
2022-12-16T17:19:30.848Z,101850.88
2022-12-16T17:22:17.100Z,101714.72
2022-12-16T17:25:02.099Z,101851.47
2022-12-16T17:27:47.757Z,101844.47
2022-12-16T17:30:36.147Z,101820.03
2022-12-16T17:33:21.643Z,101841.72
2022-12-16T17:36:08.271Z,101872.19
2022-12-16T17:38:58.198Z,101823.38
2022-12-16T17:41:43.553Z,101859.09
2022-12-16T17:44:28.427Z,101802.34
2022-12-16T17:47:13.349Z,101886.03
2022-12-16T17:49:58.541Z,101876.31
2022-12-16T17:52:44.159Z,101846.16
2022-12-16T17:55:29.636Z,101897.44
2022-12-16T17:58:15.160Z,101901.75
2022-12-16T18:01:00.979Z,101897.56
2022-12-16T18:03:46.645Z,101860.75
2022-12-16T18:06:31.879Z,101826.81
2022-12-16T18:09:17.344Z,101905.16
2022-12-16T18:12:02.842Z,101894.81
2022-12-16T18:14:47.789Z,101925.53
2022-12-16T18:17:32.738Z,101924.72
2022-12-16T18:20:17.899Z,101869.56
2022-12-16T18:23:03.147Z,101918.25
2022-12-16T18:25:48.256Z,101933.34
2022-12-16T18:28:33.274Z,101873.94
2022-12-16T18:31:23.566Z,101851.97
2022-12-16T18:34:09.298Z,101920.72
2022-12-16T18:36:54.487Z,101921.47
2022-12-16T18:39:39.731Z,101909.41
2022-12-16T18:42:24.624Z,101937.41
2022-12-16T18:45:10.188Z,101883.16
2022-12-16T18:47:55.843Z,101939.03
2022-12-16T18:50:40.822Z,101894.56
2022-12-16T18:53:25.741Z,101878.22
2022-12-16T18:56:25.371Z,101927.03
2022-12-16T18:59:11.364Z,101897.25
2022-12-16T19:01:56.804Z,101952.88
2022-12-16T19:04:42.149Z,101953.63
2022-12-16T19:07:27.504Z,101938.06
2022-12-16T19:10:13.023Z,101874.38
2022-12-16T19:12:58.135Z,101965.09
2022-12-16T19:15:43.373Z,101911.78
2022-12-16T19:18:30.388Z,101960.66
2022-12-16T19:21:16.030Z,101968.69
2022-12-16T19:24:02.080Z,101969.69
2022-12-16T19:26:46.901Z,101900.63
2022-12-16T19:29:31.828Z,101938.91
2022-12-16T19:32:17.081Z,101943.16
2022-12-16T19:35:02.173Z,101952.00
2022-12-16T19:37:47.152Z,101955.50
2022-12-16T19:40:32.326Z,101980.78
2022-12-16T19:43:17.334Z,101975.56
2022-12-16T19:46:02.316Z,101966.75
2022-12-16T19:48:50.399Z,101976.31
2022-12-16T19:51:35.414Z,101982.53
2022-12-16T19:54:20.324Z,101926.19
2022-12-16T19:57:05.308Z,101955.03
2022-12-16T19:59:50.211Z,101942.75
2022-12-16T20:02:35.282Z,101927.75
2022-12-16T20:05:20.565Z,101998.41
2022-12-16T20:08:05.630Z,101993.16
2022-12-16T20:10:50.967Z,101993.19
2022-12-16T20:13:36.772Z,101951.31
2022-12-16T20:16:26.417Z,101999.38
2022-12-16T20:19:11.845Z,101995.84
2022-12-16T20:22:00.690Z,101961.91
2022-12-16T20:24:49.622Z,102009.06
2022-12-16T20:27:34.661Z,101963.72
2022-12-16T20:30:19.573Z,102017.03
2022-12-16T20:33:06.302Z,102025.78
2022-12-16T20:35:51.200Z,102005.97
2022-12-16T20:38:36.701Z,102020.75
2022-12-16T20:41:22.945Z,102019.78
2022-12-16T20:44:09.277Z,102028.59
2022-12-16T20:46:56.328Z,102004.16
2022-12-16T20:49:41.703Z,102004.06
2022-12-16T20:52:26.537Z,102033.72
2022-12-16T20:55:11.335Z,102004.91
2022-12-16T20:57:56.376Z,102035.44
2022-12-16T21:00:41.651Z,102023.22
2022-12-16T21:03:28.004Z,102056.34
2022-12-16T21:06:13.453Z,102059.13
2022-12-16T21:08:58.766Z,102054.00
2022-12-16T21:11:43.888Z,102048.63
2022-12-16T21:14:28.819Z,101983.28
2022-12-16T21:17:13.634Z,102021.00
2022-12-16T21:19:58.551Z,102058.44
2022-12-16T21:22:43.498Z,102048.88
2022-12-16T21:25:28.365Z,102027.78
2022-12-16T21:28:17.684Z,102059.13
2022-12-16T21:31:03.266Z,102066.00
2022-12-16T21:33:49.388Z,102016.16
2022-12-16T21:36:39.659Z,102024.09
2022-12-16T21:39:38.217Z,102037.97
2022-12-16T21:42:23.137Z,102059.84
2022-12-16T21:45:08.051Z,102070.41
2022-12-16T21:47:52.851Z,102032.84
2022-12-16T21:50:41.040Z,102065.28
2022-12-16T21:53:26.273Z,102028.66
2022-12-16T21:56:11.949Z,102045.44
2022-12-16T21:58:56.946Z,102085.81
2022-12-16T22:01:42.031Z,102036.16
2022-12-16T22:04:27.999Z,102018.81
2022-12-16T22:07:12.911Z,102078.34
2022-12-16T22:09:58.246Z,102074.16
2022-12-16T22:12:43.160Z,102083.66
2022-12-16T22:15:28.698Z,102089.09
2022-12-16T22:18:14.623Z,102076.91
2022-12-16T22:20:59.681Z,102087.50
2022-12-16T22:23:48.217Z,102087.72
2022-12-16T22:26:33.537Z,102087.91
2022-12-16T22:29:18.956Z,102085.38
2022-12-16T22:32:08.377Z,102089.03
2022-12-16T22:34:53.485Z,102104.91
2022-12-16T22:37:40.949Z,102034.00
2022-12-16T22:40:27.241Z,102105.84
2022-12-16T22:43:12.111Z,101966.84
2022-12-16T22:45:57.069Z,102102.31
2022-12-16T22:48:42.294Z,102058.72
2022-12-16T22:51:31.257Z,102048.16
2022-12-16T22:54:16.595Z,102105.09
2022-12-16T22:57:09.682Z,102093.84
2022-12-16T22:59:54.793Z,102114.97
2022-12-16T23:02:41.935Z,102119.47
2022-12-16T23:05:28.261Z,102108.88
2022-12-16T23:08:13.926Z,102106.22
2022-12-16T23:10:59.594Z,102100.88
2022-12-16T23:13:46.018Z,102116.75
2022-12-16T23:16:31.526Z,102090.50
2022-12-16T23:19:16.672Z,102062.56
2022-12-16T23:22:01.512Z,102118.56
2022-12-16T23:24:46.513Z,102077.53
2022-12-16T23:27:31.633Z,102117.91
2022-12-16T23:30:16.737Z,102103.94
2022-12-16T23:33:01.664Z,102123.25
2022-12-16T23:35:46.758Z,102070.78
2022-12-16T23:38:31.596Z,102127.69
2022-12-16T23:41:17.601Z,102036.63
2022-12-16T23:44:03.580Z,102055.72
2022-12-16T23:46:49.021Z,102122.28
2022-12-16T23:49:34.283Z,102117.81
2022-12-16T23:52:19.143Z,102063.47
2022-12-16T23:55:04.261Z,102103.66
2022-12-16T23:57:49.381Z,102135.13
